createdAt,value
2018-04-19T03:21:54.079Z,0.00
2018-04-19T03:22:54.074Z,0.00
2018-04-19T03:23:54.119Z,0.00
2018-04-19T03:24:54.022Z,0.00
2018-04-19T03:25:54.028Z,0.00
2018-04-19T03:26:54.016Z,0.00
2018-04-19T03:27:54.016Z,0.00
2018-04-19T03:28:54.046Z,0.00
2018-04-19T03:29:54.039Z,0.00
2018-04-19T03:30:54.014Z,0.00
2018-04-19T03:31:54.019Z,0.00
2018-04-19T03:32:54.031Z,0.00
2018-04-19T03:33:54.058Z,0.00
2018-04-19T03:34:53.993Z,0.00
2018-04-19T03:35:53.990Z,0.00
2018-04-19T03:36:53.992Z,0.00
2018-04-19T03:37:54.074Z,0.00
2018-04-19T03:38:54.017Z,0.00
2018-04-19T03:39:54.000Z,0.00
2018-04-19T03:40:53.980Z,0.00
2018-04-19T03:41:54.004Z,0.00
2018-04-19T03:42:54.038Z,0.00
2018-04-19T03:43:53.984Z,0.00
2018-04-19T03:44:53.997Z,0.00
2018-04-19T03:45:54.016Z,0.00
2018-04-19T03:46:54.023Z,0.00
2018-04-19T03:47:54.041Z,0.00
2018-04-19T03:48:54.054Z,0.00
2018-04-19T03:49:53.983Z,0.00
2018-04-19T03:50:54.016Z,0.00
2018-04-19T03:51:53.981Z,0.00
2018-04-19T03:52:53.984Z,0.00
2018-04-19T03:53:54.004Z,4.00
2018-04-19T03:54:54.105Z,0.00
2018-04-19T03:55:53.973Z,0.00
2018-04-19T03:56:53.982Z,4.00
2018-04-19T03:57:54.000Z,0.00
2018-04-19T03:58:53.996Z,4.00
2018-04-19T03:59:53.999Z,4.00
2018-04-19T04:01:02.709Z,4.00
2018-04-19T04:02:47.502Z,8.00
2018-04-19T04:05:08.544Z,8.00
2018-04-19T04:06:08.505Z,8.00
2018-04-19T04:07:08.541Z,12.00
2018-04-19T04:08:08.509Z,16.00
2018-04-19T04:09:08.515Z,16.00
2018-04-19T04:10:08.446Z,20.00
2018-04-19T04:11:08.516Z,28.00
2018-04-19T04:12:08.453Z,32.00
2018-04-19T04:13:08.448Z,36.00
2018-04-19T04:14:08.541Z,44.00
2018-04-19T04:15:08.461Z,48.00
2018-04-19T04:16:08.464Z,56.00
2018-04-19T04:17:08.474Z,64.00
2018-04-19T04:18:08.498Z,72.00
2018-04-19T04:19:08.461Z,80.00
2018-04-19T04:20:08.430Z,88.00
2018-04-19T04:21:08.430Z,104.00
2018-04-19T04:22:08.432Z,116.00
2018-04-19T04:23:08.434Z,128.00
2018-04-19T04:24:08.423Z,136.00
2018-04-19T04:25:08.433Z,152.00
2018-04-19T04:26:08.460Z,164.00
2018-04-19T04:27:08.519Z,180.00
2018-04-19T04:28:08.449Z,196.00
2018-04-19T04:29:08.608Z,216.00
2018-04-19T04:30:08.451Z,236.00
2018-04-19T04:31:08.539Z,256.00
2018-04-19T04:32:08.461Z,280.00
2018-04-19T04:33:08.436Z,308.00
2018-04-19T04:34:08.418Z,336.00
2018-04-19T04:35:08.439Z,364.00
2018-04-19T04:36:08.409Z,400.00
2018-04-19T04:37:08.497Z,432.00
2018-04-19T04:38:08.420Z,472.00
2018-04-19T04:39:08.410Z,508.00
2018-04-19T04:40:08.456Z,552.00
2018-04-19T04:41:08.536Z,600.00
2018-04-19T04:42:08.539Z,652.00
2018-04-19T04:43:08.458Z,712.00
2018-04-19T04:44:08.438Z,772.00
2018-04-19T04:45:08.444Z,832.00
2018-04-19T04:46:08.439Z,896.00
2018-04-19T04:47:08.423Z,964.00
2018-04-19T04:48:08.403Z,1032.00
2018-04-19T04:49:08.428Z,1104.00
2018-04-19T04:50:08.398Z,1184.00
2018-04-19T04:51:08.428Z,1256.00
2018-04-19T04:52:08.402Z,1340.00
2018-04-19T04:53:08.402Z,1424.00
2018-04-19T04:54:08.646Z,1508.00
2018-04-19T04:55:08.421Z,1604.00
2018-04-19T04:56:08.416Z,1712.00
2018-04-19T04:57:08.443Z,1844.00
2018-04-19T04:58:08.971Z,1996.00
2018-04-19T04:59:08.448Z,2440.00
2018-04-19T05:00:08.503Z,5356.00
2018-04-19T05:01:08.393Z,8984.00
2018-04-19T05:02:08.419Z,12032.00
2018-04-19T05:03:08.396Z,12576.00
2018-04-19T05:04:08.390Z,13280.00
2018-04-19T05:05:08.394Z,14144.00
2018-04-19T05:06:08.397Z,15200.00
2018-04-19T05:07:08.472Z,16448.00
2018-04-19T05:08:08.409Z,17888.00
2018-04-19T05:09:08.449Z,18304.00
2018-04-19T05:10:08.513Z,19392.00
2018-04-19T05:11:08.405Z,21696.00
2018-04-19T05:12:08.433Z,21728.00
2018-04-19T05:13:17.148Z,23008.00
2018-04-19T05:15:01.930Z,23936.00
2018-04-19T05:16:01.824Z,23744.00
2018-04-19T05:17:01.821Z,26080.00
2018-04-19T05:18:01.829Z,28544.00
2018-04-19T05:19:01.915Z,27840.00
2018-04-19T05:20:02.044Z,22816.00
2018-04-19T05:21:01.958Z,13248.00
2018-04-19T05:22:01.957Z,5736.00
2018-04-19T05:23:01.911Z,5236.00
2018-04-19T05:24:01.857Z,5432.00
2018-04-19T05:25:01.881Z,6676.00
2018-04-19T05:26:01.979Z,16320.00
2018-04-19T05:27:01.901Z,27584.00
2018-04-19T05:28:01.884Z,36032.00
2018-04-19T05:29:01.890Z,39264.00
2018-04-19T05:30:01.924Z,39168.00
2018-04-19T05:31:01.910Z,38432.00
2018-04-19T05:32:01.957Z,39264.00
2018-04-19T05:33:01.937Z,40960.00
2018-04-19T05:34:01.972Z,40896.00
2018-04-19T05:35:01.928Z,40256.00
2018-04-19T05:36:02.007Z,39104.00
2018-04-19T05:37:01.944Z,40640.00
2018-04-19T05:38:02.002Z,43936.00
2018-04-19T05:39:02.016Z,43712.00
2018-04-19T05:40:02.011Z,48224.00
2018-04-19T05:41:01.988Z,51840.00
2018-04-19T05:42:02.098Z,50432.00
2018-04-19T05:43:02.041Z,47136.00
2018-04-19T05:44:02.121Z,46816.00
2018-04-19T05:45:02.114Z,49472.00
2018-04-19T05:46:02.073Z,55264.00
2018-04-19T05:47:02.144Z,53472.00
2018-04-19T05:48:02.089Z,51936.00
2018-04-19T05:49:02.106Z,55744.00
2018-04-19T05:50:02.204Z,53664.00
2018-04-19T05:51:02.157Z,54976.00
2018-04-19T05:52:02.181Z,52864.00
2018-04-19T05:53:02.134Z,53216.00
2018-04-19T05:54:02.229Z,58752.00
2018-04-19T05:55:02.304Z,61664.00
2018-04-19T05:56:02.275Z,59264.00
2018-04-19T05:57:02.300Z,60224.00
2018-04-19T05:58:02.215Z,62304.00
2018-04-19T05:59:02.317Z,61440.00
2018-04-19T06:00:02.356Z,62656.00
2018-04-19T06:01:02.323Z,64608.00
2018-04-19T06:02:02.457Z,63552.00
2018-04-19T06:03:02.441Z,66784.00
2018-04-19T06:04:02.374Z,67008.00
2018-04-19T06:05:02.453Z,63456.00
2018-04-19T06:06:02.367Z,63520.00
2018-04-19T06:07:02.553Z,53120.00
2018-04-19T06:08:02.423Z,27680.00
2018-04-19T06:09:02.724Z,9300.00
2018-04-19T06:10:02.536Z,6588.00
2018-04-19T06:11:02.547Z,5804.00
2018-04-19T06:12:02.454Z,5232.00
2018-04-19T06:13:02.420Z,4904.00
2018-04-19T06:14:02.466Z,4700.00
2018-04-19T06:15:02.436Z,4504.00
2018-04-19T06:16:02.507Z,4320.00
2018-04-19T06:17:02.548Z,4172.00
2018-04-19T06:18:03.320Z,4072.00
2018-04-19T06:19:02.563Z,4008.00
2018-04-19T06:20:02.550Z,3948.00
2018-04-19T06:21:02.542Z,3892.00
2018-04-19T06:22:02.738Z,3820.00
2018-04-19T06:23:02.612Z,3772.00
2018-04-19T06:24:02.609Z,3728.00
2018-04-19T06:25:02.586Z,3692.00
2018-04-19T06:26:02.604Z,3660.00
2018-04-19T06:27:02.615Z,3624.00
2018-04-19T06:28:02.625Z,3596.00
2018-04-19T06:29:02.622Z,3568.00
2018-04-19T06:30:02.670Z,3540.00
2018-04-19T06:31:02.613Z,3520.00
2018-04-19T06:32:02.641Z,3500.00
2018-04-19T06:33:02.598Z,3476.00
2018-04-19T06:34:02.629Z,3448.00
2018-04-19T06:35:11.390Z,3424.00
2018-04-19T06:36:56.063Z,3380.00
2018-04-19T06:39:18.300Z,3332.00
2018-04-19T06:40:18.367Z,3312.00
2018-04-19T06:41:18.292Z,3288.00
2018-04-19T06:42:18.367Z,3268.00
2018-04-19T06:44:40.833Z,3224.00
2018-04-19T06:45:40.710Z,3208.00
2018-04-19T06:46:40.628Z,3192.00
2018-04-19T06:47:40.583Z,3168.00
2018-04-19T06:48:40.578Z,3156.00
2018-04-19T06:49:40.605Z,3132.00
2018-04-19T06:50:40.589Z,3120.00
2018-04-19T06:51:40.584Z,3112.00
2018-04-19T06:52:40.564Z,3092.00
2018-04-19T06:53:40.668Z,3080.00
2018-04-19T06:54:40.565Z,3056.00
2018-04-19T06:55:40.586Z,3040.00
2018-04-19T06:56:40.610Z,3020.00
2018-04-19T06:57:40.584Z,3008.00
2018-04-19T06:58:40.619Z,2992.00
2018-04-19T06:59:40.694Z,2972.00
2018-04-19T07:00:40.618Z,2956.00
2018-04-19T07:01:40.613Z,2936.00
2018-04-19T07:02:40.620Z,2928.00
2018-04-19T07:03:40.607Z,2916.00
2018-04-19T07:04:40.619Z,2904.00
2018-04-19T07:05:40.642Z,2884.00
2018-04-19T07:06:43.369Z,2868.00
2018-04-19T07:07:40.639Z,2856.00
2018-04-19T07:08:40.703Z,2848.00
2018-04-19T07:09:40.629Z,2828.00
2018-04-19T07:10:40.612Z,2824.00
2018-04-19T07:11:40.630Z,2816.00
2018-04-19T07:12:40.640Z,2816.00
2018-04-19T07:13:40.657Z,2808.00
2018-04-19T07:14:42.387Z,2804.00
2018-04-19T07:15:40.627Z,2796.00
2018-04-19T07:16:40.627Z,2796.00
2018-04-19T07:17:40.628Z,2788.00
2018-04-19T07:18:40.629Z,2784.00
2018-04-19T07:19:42.394Z,2772.00
2018-04-19T07:20:40.634Z,2764.00
2018-04-19T07:21:40.653Z,2760.00
2018-04-19T07:22:40.656Z,2748.00
2018-04-19T07:23:40.663Z,2732.00
2018-04-19T07:24:42.407Z,2720.00
2018-04-19T07:25:40.649Z,2720.00
2018-04-19T07:26:40.674Z,2708.00
2018-04-19T07:27:40.680Z,2700.00
2018-04-19T07:28:40.699Z,2692.00
2018-04-19T07:29:40.660Z,2688.00
2018-04-19T07:30:40.667Z,2684.00
2018-04-19T07:31:40.677Z,2676.00
2018-04-19T07:32:40.685Z,2668.00
2018-04-19T07:33:40.671Z,2668.00
2018-04-19T07:36:01.834Z,2652.00
2018-04-19T07:38:22.780Z,2628.00
2018-04-19T07:39:22.779Z,2616.00
2018-04-19T07:40:22.793Z,2608.00
2018-04-19T07:41:22.885Z,2604.00
2018-04-19T07:42:22.789Z,2596.00
2018-04-19T07:43:22.796Z,2584.00
2018-04-19T07:44:22.804Z,2580.00
2018-04-19T07:45:22.805Z,2568.00
2018-04-19T07:46:22.803Z,2564.00
2018-04-19T07:47:22.798Z,2560.00
2018-04-19T07:48:22.796Z,2556.00
2018-04-19T07:49:22.815Z,2552.00
2018-04-19T07:50:22.822Z,2540.00
2018-04-19T07:51:22.816Z,2528.00
2018-04-19T07:52:22.808Z,2516.00
2018-04-19T07:53:22.823Z,2504.00
2018-04-19T07:54:22.851Z,2496.00
2018-04-19T07:55:22.828Z,2480.00
2018-04-19T07:56:22.823Z,2472.00
2018-04-19T07:57:22.831Z,2460.00
2018-04-19T07:58:22.827Z,2448.00
2018-04-19T07:59:22.829Z,2436.00
2018-04-19T08:00:22.846Z,2432.00
2018-04-19T08:01:22.834Z,2420.00
2018-04-19T08:02:22.835Z,2408.00
2018-04-19T08:03:22.842Z,2396.00
2018-04-19T08:04:22.852Z,2384.00
2018-04-19T08:05:22.888Z,2372.00
2018-04-19T08:06:22.852Z,2364.00
2018-04-19T08:07:22.864Z,2348.00
2018-04-19T08:08:22.855Z,2332.00
2018-04-19T08:09:22.864Z,2320.00
2018-04-19T08:10:22.870Z,2304.00
2018-04-19T08:11:22.884Z,2296.00
2018-04-19T08:12:22.890Z,2284.00
2018-04-19T08:13:22.874Z,2272.00
2018-04-19T08:14:22.881Z,2252.00
2018-04-19T08:15:22.885Z,2240.00
2018-04-19T08:16:22.883Z,2232.00
2018-04-19T08:17:22.896Z,2220.00
2018-04-19T08:18:22.892Z,2212.00
2018-04-19T08:19:22.886Z,2204.00
2018-04-19T08:20:22.891Z,2196.00
2018-04-19T08:21:22.913Z,2192.00
2018-04-19T08:22:22.898Z,2184.00
2018-04-19T08:23:22.927Z,2172.00
2018-04-19T08:24:22.916Z,2168.00
2018-04-19T08:25:22.910Z,2156.00
2018-04-19T08:26:22.922Z,2148.00
2018-04-19T08:27:22.912Z,2140.00
2018-04-19T08:28:22.944Z,2132.00
2018-04-19T08:29:22.937Z,2124.00
2018-04-19T08:30:22.921Z,2116.00
2018-04-19T08:31:22.926Z,2104.00
2018-04-19T08:32:22.931Z,2100.00
2018-04-19T08:33:22.946Z,2084.00
2018-04-19T08:34:22.948Z,2084.00
2018-04-19T08:35:22.996Z,2080.00
2018-04-19T08:36:22.946Z,2068.00
2018-04-19T08:37:22.950Z,2060.00
2018-04-19T08:38:22.962Z,2048.00
2018-04-19T08:39:22.984Z,2036.00
2018-04-19T08:40:22.957Z,2028.00
2018-04-19T08:41:22.977Z,2016.00
2018-04-19T08:42:22.995Z,2008.00
2018-04-19T08:43:22.973Z,2000.00
2018-04-19T08:44:23.011Z,1992.00
2018-04-19T08:45:23.013Z,1984.00
2018-04-19T08:46:23.007Z,1984.00
2018-04-19T08:47:22.999Z,1980.00
2018-04-19T08:48:23.029Z,1972.00
2018-04-19T08:49:23.028Z,1968.00
2018-04-19T08:50:23.031Z,1956.00
2018-04-19T08:51:23.074Z,1948.00
2018-04-19T08:52:23.030Z,1940.00
2018-04-19T08:53:23.013Z,1936.00
2018-04-19T08:54:23.014Z,1928.00
2018-04-19T08:55:23.030Z,1916.00
2018-04-19T08:56:23.076Z,1908.00
2018-04-19T08:57:23.068Z,1900.00
2018-04-19T08:58:23.060Z,1892.00
2018-04-19T08:59:23.047Z,1884.00
2018-04-19T09:00:23.037Z,1876.00
2018-04-19T09:01:23.089Z,1868.00
2018-04-19T09:02:23.040Z,1856.00
2018-04-19T09:03:23.042Z,1848.00
2018-04-19T09:04:23.051Z,1840.00
2018-04-19T09:05:23.053Z,1836.00
2018-04-19T09:06:23.066Z,1832.00
2018-04-19T09:07:23.117Z,1824.00
2018-04-19T09:08:23.078Z,1820.00
2018-04-19T09:09:23.140Z,1816.00
2018-04-19T09:10:23.095Z,1808.00
2018-04-19T09:11:23.095Z,1804.00
2018-04-19T09:12:23.137Z,1792.00
2018-04-19T09:13:23.114Z,1788.00
2018-04-19T09:14:23.120Z,1780.00
2018-04-19T09:15:23.116Z,1776.00
2018-04-19T09:16:31.827Z,1768.00
2018-04-19T09:18:16.577Z,1764.00
2018-04-19T09:19:25.265Z,1764.00
2018-04-19T09:21:11.029Z,1752.00
2018-04-19T09:22:11.007Z,1744.00
2018-04-19T09:23:11.019Z,1740.00
2018-04-19T09:24:11.046Z,1744.00
2018-04-19T09:25:10.992Z,1748.00
2018-04-19T09:26:10.975Z,1740.00
2018-04-19T09:27:10.986Z,1732.00
2018-04-19T09:28:11.002Z,1712.00
2018-04-19T09:29:11.017Z,1712.00
2018-04-19T09:30:11.008Z,1712.00
2018-04-19T09:31:11.052Z,1712.00
2018-04-19T09:32:11.035Z,1704.00
2018-04-19T09:33:11.025Z,1700.00
2018-04-19T09:34:11.092Z,1688.00
2018-04-19T09:35:11.014Z,1692.00
2018-04-19T09:36:11.016Z,1688.00
2018-04-19T09:37:11.022Z,1680.00
2018-04-19T09:38:11.058Z,1676.00
2018-04-19T09:39:11.032Z,1676.00
2018-04-19T09:40:11.040Z,1672.00
2018-04-19T09:41:11.041Z,1668.00
2018-04-19T09:42:11.047Z,1664.00
2018-04-19T09:43:11.055Z,1664.00
2018-04-19T09:44:11.066Z,1656.00
2018-04-19T09:45:11.070Z,1652.00
2018-04-19T09:46:11.108Z,1648.00
2018-04-19T09:47:11.075Z,1640.00
2018-04-19T09:48:11.112Z,1648.00
2018-04-19T09:49:11.137Z,1644.00
2018-04-19T09:50:11.111Z,1644.00
2018-04-19T09:51:11.087Z,1636.00
2018-04-19T09:53:34.314Z,1620.00
